createdAt,value
2022-08-07T00:02:40.559Z,11.80
2022-08-07T00:04:41.468Z,11.80
2022-08-07T00:07:09.592Z,11.70
2022-08-07T00:09:35.570Z,11.70
2022-08-07T00:11:58.945Z,11.60
2022-08-07T00:14:22.354Z,11.60
2022-08-07T00:16:47.588Z,11.50
2022-08-07T00:19:09.403Z,11.50
2022-08-07T00:21:57.026Z,11.40
2022-08-07T00:24:23.790Z,11.40
2022-08-07T00:26:59.417Z,11.40
2022-08-07T00:29:31.482Z,11.40
2022-08-07T00:31:55.190Z,11.40
2022-08-07T00:34:17.318Z,11.40
2022-08-07T00:36:44.742Z,11.40
2022-08-07T00:39:06.873Z,11.40
2022-08-07T00:41:37.256Z,11.40
2022-08-07T00:44:07.272Z,11.30
2022-08-07T00:46:34.136Z,11.30
2022-08-07T00:48:56.406Z,11.30
2022-08-07T00:51:23.960Z,11.30
2022-08-07T00:53:55.216Z,11.30
2022-08-07T00:56:17.914Z,11.30
2022-08-07T00:58:46.932Z,11.30
2022-08-07T01:01:10.027Z,11.30
2022-08-07T01:03:55.864Z,11.30
2022-08-07T01:06:17.310Z,11.20
2022-08-07T01:08:43.295Z,11.20
2022-08-07T01:12:27.670Z,11.20
2022-08-07T01:13:59.355Z,11.10
2022-08-07T01:16:30.333Z,11.10
2022-08-07T01:18:55.430Z,11.10
2022-08-07T01:21:24.370Z,11.10
2022-08-07T01:23:50.849Z,11.20
2022-08-07T01:26:16.691Z,11.10
2022-08-07T01:28:46.361Z,11.10
2022-08-07T01:31:17.932Z,11.10
2022-08-07T01:33:56.096Z,11.10
2022-08-07T01:36:31.080Z,11.00
2022-08-07T01:38:59.196Z,10.90
2022-08-07T01:41:26.225Z,10.90
2022-08-07T01:43:51.715Z,10.80
2022-08-07T01:46:15.969Z,10.80
2022-08-07T01:48:46.837Z,10.80
2022-08-07T01:52:01.087Z,10.80
2022-08-07T01:54:09.328Z,10.70
2022-08-07T01:56:39.970Z,10.70
2022-08-07T01:59:08.950Z,10.70
2022-08-07T02:01:59.829Z,10.60
2022-08-07T02:04:30.353Z,10.60
2022-08-07T02:10:44.406Z,10.60
2022-08-07T02:13:46.968Z,10.60
2022-08-07T02:16:12.351Z,10.60
2022-08-07T02:18:38.611Z,10.60
2022-08-07T02:21:09.830Z,10.60
2022-08-07T02:24:05.977Z,10.70
2022-08-07T02:26:34.713Z,10.70
2022-08-07T02:29:03.215Z,10.70
2022-08-07T02:31:28.718Z,10.70
2022-08-07T02:34:03.950Z,10.70
2022-08-07T02:36:39.008Z,10.70
2022-08-07T02:39:15.961Z,10.60
2022-08-07T02:41:40.456Z,10.60
2022-08-07T02:44:14.526Z,10.60
2022-08-07T02:46:46.864Z,10.50
2022-08-07T02:49:28.799Z,10.50
2022-08-07T02:51:59.944Z,10.50
2022-08-07T02:54:26.865Z,10.40
2022-08-07T02:56:49.702Z,10.40
2022-08-07T02:59:17.890Z,10.30
2022-08-07T03:01:51.977Z,10.30
2022-08-07T03:04:16.526Z,10.30
2022-08-07T03:06:40.310Z,10.30
2022-08-07T03:09:03.368Z,10.30
2022-08-07T03:11:25.512Z,10.20
2022-08-07T03:13:51.498Z,10.20
2022-08-07T03:16:23.066Z,10.30
2022-08-07T03:18:50.422Z,10.30
2022-08-07T03:21:12.696Z,10.30
2022-08-07T03:24:18.359Z,10.30
2022-08-07T03:26:30.946Z,10.20
2022-08-07T03:28:56.543Z,10.20
2022-08-07T03:31:24.689Z,10.10
2022-08-07T03:33:53.951Z,10.10
2022-08-07T03:36:19.027Z,10.00
2022-08-07T03:38:42.327Z,10.00
2022-08-07T03:41:07.827Z,10.00
2022-08-07T03:43:33.240Z,10.00
2022-08-07T03:45:59.537Z,9.90
2022-08-07T03:48:23.514Z,9.90
2022-08-07T03:50:52.102Z,9.90
2022-08-07T03:53:20.311Z,9.90
2022-08-07T03:56:04.277Z,9.90
2022-08-07T03:58:33.205Z,9.90
2022-08-07T04:01:15.300Z,9.80
2022-08-07T04:03:53.637Z,9.80
2022-08-07T04:06:37.309Z,9.80
2022-08-07T04:09:01.770Z,9.80
2022-08-07T04:12:24.613Z,9.80
2022-08-07T04:14:10.310Z,9.80
2022-08-07T04:16:58.119Z,9.80
2022-08-07T04:19:25.337Z,9.80
2022-08-07T04:22:13.331Z,9.80
2022-08-07T04:24:41.179Z,9.80
2022-08-07T04:27:06.348Z,9.80
2022-08-07T04:29:58.631Z,9.80
2022-08-07T04:32:47.787Z,9.90
2022-08-07T04:35:13.661Z,9.90
2022-08-07T04:38:00.940Z,9.90
2022-08-07T04:40:21.073Z,9.90
2022-08-07T04:42:43.917Z,9.90
2022-08-07T04:45:13.942Z,10.00
2022-08-07T04:47:58.749Z,10.00
2022-08-07T04:50:36.785Z,10.10
2022-08-07T04:53:27.817Z,10.20
2022-08-07T04:58:10.346Z,10.30
2022-08-07T05:01:40.031Z,10.40
2022-08-07T05:04:12.486Z,10.40
2022-08-07T05:06:53.144Z,10.40
2022-08-07T05:09:42.901Z,10.40
2022-08-07T05:12:08.887Z,10.50
2022-08-07T05:14:56.349Z,10.50
2022-08-07T05:17:50.278Z,10.50
2022-08-07T05:20:09.274Z,10.60
2022-08-07T05:22:36.490Z,10.60
2022-08-07T05:25:00.673Z,10.70
2022-08-07T05:28:02.770Z,10.80
2022-08-07T05:30:09.122Z,11.00
2022-08-07T05:32:33.542Z,11.00
2022-08-07T05:34:57.650Z,11.10
2022-08-07T05:37:25.092Z,11.30
2022-08-07T05:40:17.150Z,11.40
2022-08-07T05:42:40.173Z,11.50
2022-08-07T05:45:14.377Z,11.70
2022-08-07T05:48:02.727Z,11.80
2022-08-07T05:50:34.474Z,11.80
2022-08-07T05:52:57.137Z,11.90
2022-08-07T05:55:20.944Z,12.00
2022-08-07T05:57:46.976Z,12.20
2022-08-07T06:00:16.337Z,12.30
2022-08-07T06:02:49.958Z,12.40
2022-08-07T06:05:15.578Z,12.60
2022-08-07T06:08:29.360Z,12.80
2022-08-07T06:10:25.202Z,12.90
2022-08-07T06:12:48.831Z,13.10
2022-08-07T06:15:16.426Z,13.20
2022-08-07T06:17:52.572Z,13.40
2022-08-07T06:20:31.917Z,13.50
2022-08-07T06:23:46.241Z,13.70
2022-08-07T06:25:54.666Z,13.90
2022-08-07T06:28:27.076Z,14.00
2022-08-07T06:30:53.193Z,14.20
2022-08-07T06:33:17.059Z,14.30
2022-08-07T06:35:48.193Z,14.40
2022-08-07T06:38:25.753Z,14.60
2022-08-07T06:40:56.878Z,14.60
2022-08-07T06:43:23.734Z,14.80
2022-08-07T06:46:11.421Z,14.80
2022-08-07T06:48:34.088Z,15.00
2022-08-07T06:50:59.306Z,15.10
2022-08-07T06:55:28.486Z,15.20
2022-08-07T06:56:17.237Z,15.40
2022-08-07T07:00:14.209Z,15.50
2022-08-07T07:01:25.152Z,15.70
2022-08-07T07:04:08.259Z,15.90
2022-08-07T07:06:39.371Z,16.00
2022-08-07T07:09:23.225Z,16.20
2022-08-07T07:12:19.691Z,16.30
2022-08-07T07:14:52.786Z,16.30
2022-08-07T07:17:19.606Z,16.50
2022-08-07T07:19:57.751Z,16.60
2022-08-07T07:22:36.215Z,16.70
2022-08-07T07:26:31.670Z,16.80
2022-08-07T07:27:58.500Z,16.90
2022-08-07T07:30:38.091Z,17.10
2022-08-07T07:33:04.034Z,17.20
2022-08-07T07:35:27.210Z,17.40
2022-08-07T07:38:02.568Z,17.40
2022-08-07T07:40:27.112Z,17.50
2022-08-07T07:42:54.302Z,17.60
2022-08-07T07:45:19.282Z,17.70
2022-08-07T07:47:52.581Z,17.80
2022-08-07T07:50:33.276Z,17.90
2022-08-07T07:53:00.821Z,18.00
2022-08-07T07:55:24.037Z,18.10
2022-08-07T07:57:52.296Z,18.20
2022-08-07T08:00:29.038Z,18.20
2022-08-07T08:03:05.039Z,18.20
2022-08-07T08:05:30.307Z,18.20
2022-08-07T08:08:34.983Z,18.30
2022-08-07T08:10:54.411Z,18.30
2022-08-07T08:13:19.854Z,18.30
2022-08-07T08:15:58.511Z,18.40
2022-08-07T08:18:25.542Z,18.50
2022-08-07T08:20:49.075Z,18.60
2022-08-07T08:23:30.322Z,18.60
2022-08-07T08:26:21.608Z,18.60
2022-08-07T08:28:46.513Z,18.70
2022-08-07T08:31:15.774Z,18.70
2022-08-07T08:33:41.931Z,18.70
2022-08-07T08:36:12.985Z,18.80
2022-08-07T08:38:41.817Z,18.80
2022-08-07T08:41:14.021Z,18.80
2022-08-07T08:43:50.507Z,18.80
2022-08-07T08:46:34.092Z,18.80
2022-08-07T08:49:10.707Z,19.00
2022-08-07T08:52:13.052Z,19.20
2022-08-07T08:54:27.233Z,19.40
2022-08-07T08:56:52.257Z,19.50
2022-08-07T08:59:23.019Z,19.60
2022-08-07T09:01:59.475Z,19.60
2022-08-07T09:04:30.333Z,19.70
2022-08-07T09:06:58.974Z,19.90
2022-08-07T09:09:36.934Z,20.00
2022-08-07T09:12:30.092Z,20.20
2022-08-07T09:16:22.556Z,20.30
2022-08-07T09:17:59.292Z,20.50
2022-08-07T09:20:35.489Z,20.70
2022-08-07T09:24:32.925Z,20.90
2022-08-07T09:26:00.087Z,21.10
2022-08-07T09:30:01.600Z,20.90
2022-08-07T09:31:38.536Z,20.90
2022-08-07T09:34:12.038Z,20.90
2022-08-07T09:36:37.516Z,20.90
2022-08-07T09:39:54.303Z,20.80
2022-08-07T09:42:16.939Z,20.70
2022-08-07T09:47:25.465Z,20.60
2022-08-07T09:47:55.900Z,20.60
2022-08-07T09:50:33.801Z,20.70
2022-08-07T09:53:01.629Z,20.90
2022-08-07T09:56:03.070Z,21.20
2022-08-07T09:58:53.713Z,21.40
2022-08-07T10:01:51.275Z,21.80
2022-08-07T10:04:32.791Z,21.80
2022-08-07T10:07:24.642Z,22.00
2022-08-07T10:10:11.869Z,22.00
2022-08-07T10:12:56.160Z,22.00
2022-08-07T10:15:44.426Z,21.90
2022-08-07T10:18:26.284Z,21.60
2022-08-07T10:21:14.884Z,21.30
2022-08-07T10:24:33.285Z,21.40
2022-08-07T10:27:11.464Z,21.50
2022-08-07T10:29:53.987Z,21.40
2022-08-07T10:32:51.598Z,21.60
2022-08-07T10:35:25.841Z,21.70
2022-08-07T10:38:21.332Z,21.90
2022-08-07T10:40:51.394Z,22.20
2022-08-07T10:43:19.358Z,22.50
2022-08-07T10:45:59.429Z,22.70
2022-08-07T10:48:35.522Z,22.70
2022-08-07T10:51:03.890Z,22.60
2022-08-07T10:53:44.407Z,22.80
2022-08-07T10:56:31.116Z,23.10
2022-08-07T10:59:07.788Z,23.50
2022-08-07T11:01:51.000Z,23.70
2022-08-07T11:04:34.450Z,23.80
2022-08-07T11:07:06.247Z,24.00
2022-08-07T11:10:08.624Z,23.90
2022-08-07T11:12:39.466Z,24.20
2022-08-07T11:15:17.207Z,24.60
2022-08-07T11:17:47.095Z,24.80
2022-08-07T11:20:18.738Z,24.90
2022-08-07T11:22:46.595Z,25.30
2022-08-07T11:25:14.874Z,25.20
2022-08-07T11:28:03.085Z,25.00
2022-08-07T11:30:41.740Z,25.20
2022-08-07T11:33:14.190Z,25.10
2022-08-07T11:35:59.448Z,25.30
2022-08-07T11:38:31.292Z,26.20
2022-08-07T11:40:59.513Z,26.80
2022-08-07T11:43:29.796Z,26.80
2022-08-07T11:46:17.093Z,26.10
2022-08-07T11:49:50.172Z,25.90
2022-08-07T11:51:51.662Z,26.30
2022-08-07T11:54:39.195Z,27.60
2022-08-07T11:57:15.865Z,27.40
2022-08-07T12:00:11.670Z,27.50
2022-08-07T12:03:44.828Z,28.20
2022-08-07T12:06:37.057Z,28.10
2022-08-07T12:09:05.478Z,27.90
2022-08-07T12:11:43.397Z,27.00
2022-08-07T12:14:26.854Z,27.20
2022-08-07T12:16:56.763Z,28.10
2022-08-07T12:19:35.557Z,27.00
2022-08-07T12:22:37.700Z,26.40
2022-08-07T12:26:02.747Z,25.60
2022-08-07T12:28:12.505Z,24.70
2022-08-07T12:30:40.322Z,25.00
2022-08-07T12:33:18.931Z,26.20
2022-08-07T12:35:58.155Z,26.50
2022-08-07T12:38:38.442Z,26.10
2022-08-07T12:41:05.003Z,26.50
2022-08-07T12:44:02.573Z,27.00
2022-08-07T12:46:32.718Z,28.00
2022-08-07T12:49:10.226Z,26.90
2022-08-07T12:52:14.114Z,26.20
2022-08-07T12:54:41.269Z,27.70
2022-08-07T12:57:09.745Z,28.70
2022-08-07T12:59:53.801Z,28.20
2022-08-07T13:02:49.432Z,27.70
2022-08-07T13:06:02.786Z,27.90
2022-08-07T13:08:42.014Z,28.10
2022-08-07T13:11:24.712Z,29.40
2022-08-07T13:13:58.849Z,30.60
2022-08-07T13:16:30.279Z,31.20
2022-08-07T13:19:02.568Z,29.00
2022-08-07T13:21:37.361Z,27.30
2022-08-07T13:24:21.274Z,26.40
2022-08-07T13:26:54.992Z,27.40
2022-08-07T13:29:24.564Z,28.50
2022-08-07T13:31:57.439Z,29.40
2022-08-07T13:34:35.457Z,29.60
2022-08-07T13:37:10.474Z,29.20
2022-08-07T13:40:33.966Z,28.60
2022-08-07T13:42:25.240Z,27.90
2022-08-07T13:45:11.462Z,26.60
2022-08-07T13:48:06.758Z,26.80
2022-08-07T13:50:32.600Z,26.10
2022-08-07T13:53:00.185Z,26.30
2022-08-07T13:55:25.777Z,27.40
2022-08-07T13:58:01.715Z,28.50
2022-08-07T14:00:35.511Z,29.30
2022-08-07T14:03:14.368Z,29.30
2022-08-07T14:05:53.559Z,28.90
2022-08-07T14:08:19.020Z,30.00
2022-08-07T14:10:43.741Z,31.30
2022-08-07T14:13:06.664Z,31.60
2022-08-07T14:15:35.016Z,30.80
2022-08-07T14:18:23.416Z,29.70
2022-08-07T14:20:54.809Z,29.10
2022-08-07T14:23:31.389Z,28.90
2022-08-07T14:26:28.142Z,29.10
2022-08-07T14:28:57.651Z,29.30
2022-08-07T14:31:25.257Z,29.50
2022-08-07T14:34:07.493Z,29.70
2022-08-07T14:36:34.710Z,29.40
2022-08-07T14:39:02.783Z,29.80
2022-08-07T14:41:34.114Z,30.40
2022-08-07T14:44:15.658Z,30.80
2022-08-07T14:46:56.477Z,31.10
2022-08-07T14:49:58.275Z,31.70
2022-08-07T14:52:12.013Z,31.50
2022-08-07T14:54:43.215Z,30.50
2022-08-07T14:57:08.142Z,29.90
2022-08-07T15:00:05.708Z,29.20
2022-08-07T15:02:32.954Z,28.90
2022-08-07T15:04:58.005Z,27.90
2022-08-07T15:07:24.798Z,27.00
2022-08-07T15:10:11.197Z,26.30
2022-08-07T15:13:11.379Z,25.60
2022-08-07T15:15:26.569Z,25.70
2022-08-07T15:17:55.893Z,27.20
2022-08-07T15:23:20.087Z,30.30
2022-08-07T15:25:56.817Z,30.10
2022-08-07T15:28:34.962Z,28.80
2022-08-07T15:31:06.568Z,27.20
2022-08-07T15:33:33.656Z,26.10
2022-08-07T15:36:01.564Z,25.30
2022-08-07T15:38:31.012Z,24.60
2022-08-07T15:41:24.445Z,24.20
2022-08-07T15:46:32.400Z,23.70
2022-08-07T15:49:14.278Z,23.40
2022-08-07T15:54:21.011Z,23.20
2022-08-07T15:56:46.097Z,23.10
2022-08-07T15:59:16.656Z,23.10
2022-08-07T16:01:42.089Z,23.00
2022-08-07T16:04:06.224Z,23.00
2022-08-07T16:06:40.344Z,22.90
2022-08-07T16:09:07.656Z,22.80
2022-08-07T16:11:58.018Z,22.80
2022-08-07T16:14:37.539Z,22.70
2022-08-07T16:17:14.864Z,22.70
2022-08-07T16:19:59.279Z,22.60
2022-08-07T16:22:55.346Z,22.60
2022-08-07T16:25:54.070Z,22.50
2022-08-07T16:30:07.246Z,22.40
2022-08-07T16:31:51.983Z,22.40
2022-08-07T16:34:18.211Z,22.50
2022-08-07T16:38:03.807Z,22.50
2022-08-07T16:40:03.524Z,22.40
2022-08-07T16:42:40.725Z,22.20
2022-08-07T16:46:33.731Z,22.00
2022-08-07T16:48:30.038Z,21.80
2022-08-07T16:51:54.040Z,21.70
2022-08-07T16:54:33.074Z,21.70
2022-08-07T16:58:01.095Z,21.80
2022-08-07T17:00:13.347Z,21.90
2022-08-07T17:03:06.152Z,22.00
2022-08-07T17:06:19.759Z,22.20
2022-08-07T17:09:04.171Z,22.30
2022-08-07T17:12:01.482Z,22.10
2022-08-07T17:14:19.296Z,21.90
2022-08-07T17:16:55.793Z,21.80
2022-08-07T17:20:00.785Z,21.70
2022-08-07T17:22:12.119Z,21.60
2022-08-07T17:24:56.263Z,21.50
2022-08-07T17:27:23.951Z,21.30
2022-08-07T17:30:14.177Z,21.10
2022-08-07T17:32:53.163Z,20.90
2022-08-07T17:35:50.031Z,20.80
2022-08-07T17:38:34.392Z,20.60
2022-08-07T17:41:02.667Z,20.50
2022-08-07T17:44:02.757Z,20.50
2022-08-07T17:46:36.823Z,20.40
2022-08-07T17:49:09.402Z,20.40
2022-08-07T17:52:00.017Z,20.40
2022-08-07T17:54:29.860Z,20.40
2022-08-07T17:57:18.980Z,20.30
2022-08-07T17:59:45.513Z,20.30
2022-08-07T18:02:15.281Z,20.40
2022-08-07T18:04:48.441Z,20.40
2022-08-07T18:07:34.454Z,20.60
2022-08-07T18:10:05.578Z,21.20
2022-08-07T18:12:42.057Z,22.20
2022-08-07T18:15:09.905Z,22.90
2022-08-07T18:18:46.614Z,23.40
2022-08-07T18:21:09.541Z,23.70
2022-08-07T18:23:42.193Z,23.80
2022-08-07T18:26:05.317Z,24.10
2022-08-07T18:28:58.473Z,24.10
2022-08-07T18:31:38.985Z,23.90
2022-08-07T18:34:37.788Z,23.60
2022-08-07T18:37:15.147Z,23.30
2022-08-07T18:40:18.649Z,22.70
2022-08-07T18:43:06.027Z,21.90
2022-08-07T18:46:24.621Z,21.10
2022-08-07T18:50:03.404Z,20.60
2022-08-07T18:52:35.247Z,20.10
2022-08-07T18:54:27.892Z,19.70
2022-08-07T18:57:29.375Z,19.50
2022-08-07T19:00:04.359Z,19.30
2022-08-07T19:02:52.438Z,19.10
2022-08-07T19:05:27.632Z,18.90
2022-08-07T19:08:18.172Z,18.80
2022-08-07T19:10:52.347Z,18.60
2022-08-07T19:13:22.677Z,18.40
2022-08-07T19:16:03.251Z,18.30
2022-08-07T19:18:35.497Z,18.20
2022-08-07T19:21:09.274Z,18.10
2022-08-07T19:23:58.585Z,18.00
2022-08-07T19:26:28.964Z,17.80
2022-08-07T19:28:59.193Z,17.80
2022-08-07T19:32:08.008Z,17.70
2022-08-07T19:34:34.364Z,17.60
2022-08-07T19:37:10.232Z,17.50
2022-08-07T19:39:57.513Z,17.40
2022-08-07T19:42:25.847Z,17.30
2022-08-07T19:44:55.697Z,17.30
2022-08-07T19:47:27.394Z,17.20
2022-08-07T19:49:57.437Z,17.10
2022-08-07T19:52:28.767Z,17.00
2022-08-07T19:54:56.645Z,16.90
2022-08-07T19:58:00.720Z,16.90
2022-08-07T20:00:10.633Z,16.80
2022-08-07T20:02:39.092Z,16.80
2022-08-07T20:05:07.669Z,16.70
2022-08-07T20:07:47.566Z,16.60
2022-08-07T20:10:35.582Z,16.60
2022-08-07T20:13:01.968Z,16.50
2022-08-07T20:15:37.304Z,16.40
2022-08-07T20:18:03.639Z,16.30
2022-08-07T20:20:27.522Z,16.20
2022-08-07T20:22:55.690Z,16.10
2022-08-07T20:25:20.563Z,16.00
2022-08-07T20:27:47.850Z,15.90
2022-08-07T20:30:22.597Z,15.90
2022-08-07T20:32:48.213Z,15.90
2022-08-07T20:35:16.070Z,15.90
2022-08-07T20:37:58.915Z,15.80
2022-08-07T20:40:32.407Z,15.80
2022-08-07T20:42:57.846Z,15.80
2022-08-07T20:45:33.108Z,15.80
2022-08-07T20:48:08.677Z,15.80
2022-08-07T20:50:31.837Z,15.80
2022-08-07T20:52:54.267Z,15.70
2022-08-07T20:55:23.780Z,15.60
2022-08-07T20:58:00.016Z,15.60
2022-08-07T21:00:38.052Z,15.60
2022-08-07T21:03:07.590Z,15.60
2022-08-07T21:05:51.260Z,15.60
2022-08-07T21:08:28.808Z,15.60
2022-08-07T21:11:02.786Z,15.50
2022-08-07T21:13:57.218Z,15.50
2022-08-07T21:16:10.046Z,15.40
2022-08-07T21:18:40.967Z,15.40
2022-08-07T21:21:05.077Z,15.30
2022-08-07T21:23:49.302Z,15.30
2022-08-07T21:26:22.914Z,15.20
2022-08-07T21:28:51.016Z,15.10
2022-08-07T21:31:31.430Z,15.10
2022-08-07T21:34:13.820Z,15.10
2022-08-07T21:36:50.233Z,15.10
2022-08-07T21:39:46.469Z,15.00
2022-08-07T21:42:37.632Z,15.00
2022-08-07T21:44:58.400Z,14.90
2022-08-07T21:47:26.079Z,14.90
2022-08-07T21:50:02.745Z,14.90
2022-08-07T21:52:35.090Z,14.80
2022-08-07T21:55:06.565Z,14.80
2022-08-07T21:57:44.823Z,14.70
2022-08-07T22:00:22.988Z,14.70
2022-08-07T22:03:03.395Z,14.70
2022-08-07T22:05:45.302Z,14.60
2022-08-07T22:08:12.074Z,14.60
2022-08-07T22:10:37.269Z,14.60
2022-08-07T22:13:09.446Z,14.50
2022-08-07T22:16:43.566Z,14.50
2022-08-07T22:18:26.414Z,14.50
2022-08-07T22:20:54.845Z,14.40
2022-08-07T22:23:23.516Z,14.30
2022-08-07T22:25:55.028Z,14.30
2022-08-07T22:28:32.198Z,14.20
2022-08-07T22:31:05.325Z,14.20
2022-08-07T22:33:52.654Z,14.20
2022-08-07T22:36:27.602Z,14.20
2022-08-07T22:38:54.843Z,14.20
2022-08-07T22:41:21.482Z,14.10
2022-08-07T22:43:56.286Z,14.10
2022-08-07T22:47:05.985Z,14.10
2022-08-07T22:49:56.120Z,14.10
2022-08-07T22:52:39.838Z,14.00
2022-08-07T22:55:39.337Z,14.00
2022-08-07T22:58:39.978Z,14.00
2022-08-07T23:01:49.484Z,14.00
2022-08-07T23:04:58.031Z,13.90
2022-08-07T23:07:47.661Z,13.90
2022-08-07T23:10:38.165Z,13.80
2022-08-07T23:13:49.091Z,13.80
2022-08-07T23:16:44.727Z,13.70
2022-08-07T23:19:48.230Z,13.70
2022-08-07T23:22:27.766Z,13.60
2022-08-07T23:25:09.601Z,13.60
2022-08-07T23:28:21.672Z,13.50
2022-08-07T23:30:43.439Z,13.50
2022-08-07T23:34:35.849Z,13.50
2022-08-07T23:36:29.183Z,13.50
2022-08-07T23:39:08.709Z,13.50
2022-08-07T23:42:04.462Z,13.50
2022-08-07T23:44:41.626Z,13.50
2022-08-07T23:47:18.526Z,13.50
2022-08-07T23:50:19.166Z,13.50
2022-08-07T23:53:05.924Z,13.40
2022-08-07T23:55:47.159Z,13.40
2022-08-07T23:58:30.559Z,13.30
